createdAt,value
2016-11-16T00:00:37.094Z,0
2016-11-16T00:01:36.961Z,0
2016-11-16T00:02:37.045Z,0
2016-11-16T00:03:37.100Z,0
2016-11-16T00:04:37.103Z,0
2016-11-16T00:05:37.914Z,0
2016-11-16T00:06:37.203Z,0
2016-11-16T00:07:37.293Z,0
2016-11-16T00:08:37.310Z,0
2016-11-16T00:09:37.354Z,0
2016-11-16T00:10:37.432Z,0
2016-11-16T00:11:37.966Z,0
2016-11-16T00:12:38.041Z,0
2016-11-16T00:13:37.570Z,0
2016-11-16T00:14:37.635Z,0
2016-11-16T00:15:38.695Z,0
2016-11-16T00:16:37.722Z,0
2016-11-16T00:17:37.764Z,0
2016-11-16T00:18:37.814Z,0
2016-11-16T00:19:37.870Z,0
2016-11-16T00:20:37.925Z,0
2016-11-16T00:21:38.183Z,0
2016-11-16T00:22:38.050Z,0
2016-11-16T00:23:38.067Z,0
2016-11-16T00:24:38.106Z,0
2016-11-16T00:25:38.693Z,0
2016-11-16T00:26:38.427Z,0
2016-11-16T00:27:38.259Z,0
2016-11-16T00:28:38.358Z,0
2016-11-16T00:29:38.384Z,0
2016-11-16T00:30:38.405Z,0
2016-11-16T00:31:38.716Z,0
2016-11-16T00:32:38.544Z,0
2016-11-16T00:33:39.124Z,0
2016-11-16T00:34:38.659Z,0
2016-11-16T00:35:38.702Z,0
2016-11-16T00:36:38.845Z,0
2016-11-16T00:37:38.760Z,0
2016-11-16T00:38:38.871Z,0
2016-11-16T00:39:39.415Z,0
2016-11-16T00:40:38.903Z,0
2016-11-16T00:41:39.184Z,0
2016-11-16T00:42:39.012Z,0
2016-11-16T00:43:39.101Z,0
2016-11-16T00:44:39.166Z,0
2016-11-16T00:45:39.179Z,0
2016-11-16T00:46:39.788Z,0
2016-11-16T00:47:39.312Z,0
2016-11-16T00:48:39.362Z,0
2016-11-16T00:49:39.400Z,0
2016-11-16T00:50:39.450Z,0
2016-11-16T00:51:39.471Z,0
2016-11-16T00:52:40.267Z,0
2016-11-16T00:53:39.577Z,0
2016-11-16T00:54:39.676Z,0
2016-11-16T00:55:39.698Z,0
2016-11-16T00:56:39.756Z,0
2016-11-16T00:57:39.979Z,0
2016-11-16T00:58:39.864Z,0
2016-11-16T00:59:39.898Z,0
2016-11-16T01:00:39.963Z,0
2016-11-16T01:01:39.994Z,0
2016-11-16T01:02:40.219Z,0
2016-11-16T01:03:40.131Z,0
2016-11-16T01:04:40.156Z,0
2016-11-16T01:05:40.215Z,0
2016-11-16T01:06:40.280Z,0
2016-11-16T01:07:40.503Z,0
2016-11-16T01:08:40.381Z,0
2016-11-16T01:09:40.385Z,0
2016-11-16T01:10:40.451Z,0
2016-11-16T01:11:40.995Z,0
2016-11-16T01:12:40.617Z,0
2016-11-16T01:13:40.601Z,0
2016-11-16T01:14:40.652Z,0
2016-11-16T01:15:40.722Z,0
2016-11-16T01:16:40.762Z,0
2016-11-16T01:17:40.803Z,0
2016-11-16T01:18:40.949Z,0
2016-11-16T01:19:40.892Z,0
2016-11-16T01:20:40.939Z,0
2016-11-16T01:21:41.008Z,0
2016-11-16T01:22:41.082Z,0
2016-11-16T01:23:41.313Z,0
2016-11-16T01:24:41.188Z,0
2016-11-16T01:25:41.237Z,0
2016-11-16T01:26:41.255Z,0
2016-11-16T01:27:41.819Z,0
2016-11-16T01:28:41.497Z,0
2016-11-16T01:29:41.435Z,0
2016-11-16T01:30:41.471Z,0
2016-11-16T01:31:41.510Z,0
2016-11-16T01:32:41.565Z,0
2016-11-16T01:33:41.706Z,0
2016-11-16T01:34:41.697Z,0
2016-11-16T01:35:41.695Z,0
2016-11-16T01:36:41.784Z,0
2016-11-16T01:37:41.800Z,0
2016-11-16T01:38:41.884Z,0
2016-11-16T01:39:42.448Z,0
2016-11-16T01:40:42.013Z,0
2016-11-16T01:41:41.989Z,0
2016-11-16T01:42:42.060Z,0
2016-11-16T01:43:42.109Z,0
2016-11-16T01:44:42.370Z,0
2016-11-16T01:45:42.237Z,0
2016-11-16T01:46:42.808Z,0
2016-11-16T01:47:42.322Z,0
2016-11-16T01:48:42.903Z,0
2016-11-16T01:49:42.611Z,0
2016-11-16T01:50:42.985Z,0
2016-11-16T01:51:42.543Z,0
2016-11-16T01:52:42.578Z,0
2016-11-16T01:53:42.635Z,0
2016-11-16T01:54:43.427Z,0
2016-11-16T01:55:43.250Z,0
2016-11-16T01:56:42.758Z,0
2016-11-16T01:57:42.823Z,0
2016-11-16T01:58:43.926Z,0
2016-11-16T01:59:43.045Z,0
2016-11-16T02:00:42.982Z,0
2016-11-16T02:01:43.530Z,0
2016-11-16T02:02:43.114Z,0
2016-11-16T02:03:43.659Z,0
2016-11-16T02:04:43.199Z,0
2016-11-16T02:05:43.234Z,0
2016-11-16T02:06:43.304Z,0
2016-11-16T02:07:43.332Z,0
2016-11-16T02:08:43.366Z,0
2016-11-16T02:09:43.415Z,0
2016-11-16T02:10:43.662Z,0
2016-11-16T02:11:43.513Z,0
2016-11-16T02:12:44.140Z,0
2016-11-16T02:13:44.158Z,0
2016-11-16T02:14:43.681Z,0
2016-11-16T02:15:43.999Z,0
2016-11-16T02:16:43.772Z,0
2016-11-16T02:17:43.852Z,0
2016-11-16T02:18:44.423Z,0
2016-11-16T02:19:43.927Z,0
2016-11-16T02:20:44.206Z,0
2016-11-16T02:21:44.031Z,0
2016-11-16T02:22:44.119Z,0
2016-11-16T02:23:44.139Z,0
2016-11-16T02:24:44.205Z,0
2016-11-16T02:25:44.461Z,0
2016-11-16T02:26:44.309Z,0
2016-11-16T02:27:44.385Z,0
2016-11-16T02:28:44.439Z,0
2016-11-16T02:29:44.464Z,0
2016-11-16T02:30:44.712Z,0
2016-11-16T02:31:44.544Z,0
2016-11-16T02:32:44.650Z,0
2016-11-16T02:33:44.682Z,0
2016-11-16T02:34:44.693Z,0
2016-11-16T02:35:44.744Z,0
2016-11-16T02:36:44.820Z,0
2016-11-16T02:37:44.858Z,0
2016-11-16T02:38:44.882Z,0
2016-11-16T02:39:44.995Z,0
2016-11-16T02:40:45.023Z,0
2016-11-16T02:41:45.237Z,0
2016-11-16T02:42:45.144Z,0
2016-11-16T02:43:45.161Z,0
2016-11-16T02:44:45.194Z,0
2016-11-16T02:45:45.258Z,0
2016-11-16T02:46:45.518Z,0
2016-11-16T02:47:45.336Z,0
2016-11-16T02:48:45.434Z,0
2016-11-16T02:49:45.439Z,0
2016-11-16T02:50:45.493Z,0
2016-11-16T02:51:45.768Z,0
2016-11-16T02:52:45.598Z,0
2016-11-16T02:53:45.650Z,0
2016-11-16T02:54:45.728Z,0
2016-11-16T02:55:45.743Z,0
2016-11-16T02:56:46.021Z,0
2016-11-16T02:57:45.880Z,0
2016-11-16T02:58:45.924Z,0
2016-11-16T02:59:46.020Z,0
2016-11-16T03:00:46.549Z,0
2016-11-16T03:01:46.169Z,0
2016-11-16T03:02:46.091Z,0
2016-11-16T03:03:46.177Z,0
2016-11-16T03:04:46.743Z,0
2016-11-16T03:05:46.266Z,0
2016-11-16T03:06:46.351Z,0
2016-11-16T03:07:46.382Z,0
2016-11-16T03:08:46.426Z,0
2016-11-16T03:09:46.454Z,0
2016-11-16T03:10:46.541Z,0
2016-11-16T03:11:46.589Z,0
2016-11-16T03:12:47.347Z,0
2016-11-16T03:13:46.693Z,0
2016-11-16T03:14:46.713Z,0
2016-11-16T03:15:46.785Z,0
2016-11-16T03:16:46.787Z,0
2016-11-16T03:17:47.592Z,0
2016-11-16T03:18:47.437Z,0
2016-11-16T03:19:46.972Z,0
2016-11-16T03:20:47.035Z,0
2016-11-16T03:21:47.093Z,0
2016-11-16T03:22:50.686Z,0
2016-11-16T03:26:04.623Z,0
2016-11-16T03:27:04.674Z,0
2016-11-16T03:28:04.949Z,0
2016-11-16T03:29:04.776Z,0
2016-11-16T03:30:04.859Z,0
2016-11-16T03:31:04.886Z,0
2016-11-16T03:32:04.936Z,0
2016-11-16T03:33:05.068Z,0
2016-11-16T03:34:05.029Z,0
2016-11-16T03:35:05.063Z,0
2016-11-16T03:36:05.120Z,0
2016-11-16T03:37:05.756Z,0
2016-11-16T03:38:05.328Z,0
2016-11-16T03:39:05.274Z,0
2016-11-16T03:40:05.354Z,0
2016-11-16T03:41:05.405Z,0
2016-11-16T03:42:05.990Z,0
2016-11-16T03:43:05.680Z,0
2016-11-16T03:44:05.576Z,0
2016-11-16T03:45:06.098Z,0
2016-11-16T03:46:05.633Z,0
2016-11-16T03:47:05.692Z,0
2016-11-16T03:48:05.749Z,0
2016-11-16T03:49:05.772Z,0
2016-11-16T03:50:05.867Z,0
2016-11-16T03:51:06.419Z,0
2016-11-16T03:52:05.942Z,0
2016-11-16T03:53:05.966Z,0
2016-11-16T03:54:06.156Z,0
2016-11-16T03:55:06.104Z,0
2016-11-16T03:56:06.153Z,0
2016-11-16T03:57:06.157Z,0
2016-11-16T03:58:06.279Z,0
2016-11-16T03:59:06.401Z,0
2016-11-16T04:00:06.320Z,0
2016-11-16T04:01:06.413Z,0
2016-11-16T04:02:06.449Z,0
2016-11-16T04:03:06.487Z,0
2016-11-16T04:04:06.745Z,0
2016-11-16T04:05:06.642Z,0
2016-11-16T04:06:06.653Z,0
2016-11-16T04:07:06.682Z,0
2016-11-16T04:08:07.299Z,0
2016-11-16T04:09:07.037Z,0
2016-11-16T04:10:06.838Z,0
2016-11-16T04:11:06.956Z,0
2016-11-16T04:12:06.997Z,0
2016-11-16T04:13:07.008Z,0
2016-11-16T04:14:07.245Z,0
2016-11-16T04:15:07.135Z,0
2016-11-16T04:16:07.126Z,0
2016-11-16T04:17:07.253Z,0
2016-11-16T04:18:07.275Z,0
2016-11-16T04:19:07.340Z,0
2016-11-16T04:20:07.363Z,0
2016-11-16T04:21:07.444Z,0
2016-11-16T04:22:07.507Z,0
2016-11-16T04:23:07.518Z,0
2016-11-16T04:24:07.576Z,0
2016-11-16T04:25:07.795Z,0
2016-11-16T04:26:07.659Z,0
2016-11-16T04:27:07.746Z,0
2016-11-16T04:28:07.778Z,0
2016-11-16T04:29:08.335Z,0
2016-11-16T04:30:08.057Z,0
2016-11-16T04:31:07.899Z,0
2016-11-16T04:32:07.985Z,0
2016-11-16T04:33:07.999Z,0
2016-11-16T04:34:08.091Z,0
2016-11-16T04:35:08.280Z,0
2016-11-16T04:36:08.174Z,0
2016-11-16T04:37:08.286Z,0
2016-11-16T04:38:08.305Z,0
2016-11-16T04:39:08.293Z,0
2016-11-16T04:40:08.559Z,0
2016-11-16T04:41:08.436Z,0
2016-11-16T04:42:08.502Z,0
2016-11-16T04:43:08.548Z,0
2016-11-16T04:44:08.601Z,0
2016-11-16T04:45:08.814Z,0
2016-11-16T04:46:08.698Z,0
2016-11-16T04:47:08.746Z,0
2016-11-16T04:48:08.785Z,0
2016-11-16T04:49:08.827Z,0
2016-11-16T04:50:08.913Z,0
2016-11-16T04:51:08.946Z,0
2016-11-16T04:52:08.994Z,0
2016-11-16T04:53:09.028Z,0
2016-11-16T04:54:09.061Z,0
2016-11-16T04:55:09.091Z,0
2016-11-16T04:56:09.415Z,0
2016-11-16T04:57:09.254Z,0
2016-11-16T04:58:09.276Z,0
2016-11-16T04:59:09.322Z,0
2016-11-16T05:00:09.344Z,0
2016-11-16T05:01:09.517Z,0
2016-11-16T05:02:09.503Z,0
2016-11-16T05:03:09.574Z,0
2016-11-16T05:04:09.595Z,0
2016-11-16T05:05:09.692Z,0
2016-11-16T05:06:09.785Z,0
2016-11-16T05:07:10.276Z,0
2016-11-16T05:08:09.827Z,0
2016-11-16T05:09:09.837Z,0
2016-11-16T05:10:10.412Z,0
2016-11-16T05:11:10.098Z,0
2016-11-16T05:12:09.991Z,0
2016-11-16T05:13:10.043Z,0
2016-11-16T05:14:10.058Z,0
2016-11-16T05:15:10.185Z,0
2016-11-16T05:16:10.260Z,0
2016-11-16T05:17:10.280Z,0
2016-11-16T05:18:10.315Z,0
2016-11-16T05:19:10.370Z,0
2016-11-16T05:20:10.371Z,0
2016-11-16T05:21:10.443Z,0
2016-11-16T05:22:10.492Z,0
2016-11-16T05:23:10.557Z,0
2016-11-16T05:24:10.577Z,0
2016-11-16T05:25:10.673Z,0
2016-11-16T05:26:10.712Z,0
2016-11-16T05:27:10.882Z,0
2016-11-16T05:28:10.768Z,0
2016-11-16T05:29:11.371Z,0
2016-11-16T05:30:10.869Z,0
2016-11-16T05:31:10.968Z,0
2016-11-16T05:32:11.166Z,0
2016-11-16T05:33:11.055Z,0
2016-11-16T05:34:11.095Z,0
2016-11-16T05:35:11.158Z,0
2016-11-16T05:36:11.699Z,0
2016-11-16T05:37:11.967Z,0
2016-11-16T05:38:11.344Z,0
2016-11-16T05:39:11.355Z,0
2016-11-16T05:40:11.384Z,0
2016-11-16T05:41:11.465Z,0
2016-11-16T05:42:11.664Z,0
2016-11-16T05:43:11.519Z,0
2016-11-16T05:44:12.370Z,0
2016-11-16T05:45:11.641Z,0
2016-11-16T05:46:11.702Z,0
2016-11-16T05:47:12.382Z,0
2016-11-16T05:48:11.766Z,0
2016-11-16T05:49:11.823Z,0
2016-11-16T05:50:12.483Z,0
2016-11-16T05:51:11.979Z,0
2016-11-16T05:52:11.993Z,0
2016-11-16T05:53:12.048Z,0
2016-11-16T05:54:12.090Z,0
2016-11-16T05:55:12.136Z,0
2016-11-16T05:56:12.262Z,0
2016-11-16T05:57:12.235Z,0
2016-11-16T05:58:12.385Z,0
2016-11-16T05:59:12.878Z,0
2016-11-16T06:00:12.389Z,0
2016-11-16T06:01:12.459Z,0
2016-11-16T06:02:12.494Z,0
2016-11-16T06:03:12.733Z,0
2016-11-16T06:04:12.620Z,0
2016-11-16T06:05:12.648Z,0
2016-11-16T06:06:12.659Z,0
2016-11-16T06:07:12.721Z,0
2016-11-16T06:08:13.019Z,0
2016-11-16T06:09:12.855Z,0
2016-11-16T06:10:12.864Z,0
2016-11-16T06:11:12.949Z,0
2016-11-16T06:12:12.962Z,0
2016-11-16T06:13:13.153Z,0
2016-11-16T06:14:13.110Z,0
2016-11-16T06:15:13.161Z,0
2016-11-16T06:16:13.206Z,0
2016-11-16T06:17:13.268Z,0
2016-11-16T06:18:13.449Z,0
2016-11-16T06:19:13.396Z,0
2016-11-16T06:20:13.383Z,0
2016-11-16T06:21:13.456Z,0
2016-11-16T06:22:13.485Z,0
2016-11-16T06:23:13.532Z,0
2016-11-16T06:24:13.602Z,0
2016-11-16T06:25:13.641Z,0
2016-11-16T06:26:13.689Z,0
2016-11-16T06:27:13.793Z,0
2016-11-16T06:28:13.800Z,0
2016-11-16T06:29:13.927Z,0
2016-11-16T06:30:13.901Z,0
2016-11-16T06:31:13.909Z,0
2016-11-16T06:32:14.024Z,0
2016-11-16T06:33:14.050Z,0
2016-11-16T06:34:14.300Z,0
2016-11-16T06:35:14.183Z,0
2016-11-16T06:36:14.235Z,0
2016-11-16T06:37:14.261Z,0
2016-11-16T06:38:14.337Z,0
2016-11-16T06:39:14.445Z,0
2016-11-16T06:40:14.434Z,0
2016-11-16T06:41:14.442Z,0
2016-11-16T06:42:14.530Z,0
2016-11-16T06:43:14.631Z,0
2016-11-16T06:44:14.910Z,0
2016-11-16T06:45:14.679Z,0
2016-11-16T06:46:14.715Z,0
2016-11-16T06:47:14.728Z,0
2016-11-16T06:48:14.829Z,0
2016-11-16T06:49:14.966Z,0
2016-11-16T06:50:14.898Z,0
2016-11-16T06:51:14.957Z,0
2016-11-16T06:52:14.972Z,0
2016-11-16T06:53:15.054Z,0
2016-11-16T06:54:15.096Z,0
2016-11-16T06:55:15.168Z,0
2016-11-16T06:56:15.205Z,0
2016-11-16T06:57:15.288Z,0
2016-11-16T06:58:15.335Z,0
2016-11-16T06:59:15.436Z,0
2016-11-16T07:00:15.548Z,0
2016-11-16T07:01:15.473Z,0
2016-11-16T07:02:15.547Z,0
2016-11-16T07:03:15.549Z,0
2016-11-16T07:04:15.640Z,0
2016-11-16T07:05:15.767Z,0
2016-11-16T07:06:15.729Z,0
2016-11-16T07:07:15.757Z,0
2016-11-16T07:08:15.836Z,0
2016-11-16T07:09:15.851Z,0
2016-11-16T07:10:16.102Z,0
2016-11-16T07:11:15.976Z,0
2016-11-16T07:12:16.024Z,0
2016-11-16T07:13:16.062Z,0
2016-11-16T07:14:16.110Z,0
2016-11-16T07:15:16.360Z,0
2016-11-16T07:16:16.194Z,0
2016-11-16T07:17:16.261Z,0
2016-11-16T07:18:16.268Z,0
2016-11-16T07:19:16.357Z,0
2016-11-16T07:20:16.400Z,0
2016-11-16T07:21:16.466Z,0
2016-11-16T07:22:17.027Z,0
2016-11-16T07:23:16.608Z,0
2016-11-16T07:24:16.622Z,0
2016-11-16T07:25:16.642Z,0
2016-11-16T07:26:16.752Z,0
2016-11-16T07:27:16.734Z,0
2016-11-16T07:28:16.800Z,0
2016-11-16T07:29:16.841Z,0
2016-11-16T07:30:16.882Z,0
2016-11-16T07:31:17.062Z,0
2016-11-16T07:32:16.992Z,0
2016-11-16T07:33:17.060Z,0
2016-11-16T07:34:17.105Z,0
2016-11-16T07:35:17.206Z,0
2016-11-16T07:36:17.350Z,0
2016-11-16T07:37:17.255Z,0
2016-11-16T07:38:17.304Z,0
2016-11-16T07:39:17.395Z,0
2016-11-16T07:40:17.413Z,0
2016-11-16T07:41:17.641Z,0
2016-11-16T07:42:17.494Z,0
2016-11-16T07:43:17.604Z,0
2016-11-16T07:44:17.632Z,0
2016-11-16T07:45:17.645Z,0
2016-11-16T07:46:17.933Z,0
2016-11-16T07:47:17.806Z,0
2016-11-16T07:48:17.816Z,0
2016-11-16T07:49:17.870Z,0
2016-11-16T07:50:17.898Z,0
2016-11-16T07:51:18.597Z,0
2016-11-16T07:52:17.995Z,0
2016-11-16T07:53:18.109Z,0
2016-11-16T07:54:18.134Z,0
2016-11-16T07:55:18.181Z,0
2016-11-16T07:56:18.358Z,0
2016-11-16T07:57:18.322Z,0
2016-11-16T07:58:18.350Z,4
2016-11-16T07:59:18.393Z,4
2016-11-16T08:00:18.440Z,0
2016-11-16T08:01:18.496Z,4
2016-11-16T08:02:18.478Z,4
2016-11-16T08:03:18.631Z,4
2016-11-16T08:04:18.618Z,8
2016-11-16T08:05:18.713Z,8
2016-11-16T08:06:18.680Z,8
2016-11-16T08:07:19.347Z,12
2016-11-16T08:08:18.876Z,12
2016-11-16T08:09:18.861Z,16
2016-11-16T08:10:18.897Z,20
2016-11-16T08:11:19.493Z,20
2016-11-16T08:12:19.191Z,28
2016-11-16T08:13:19.641Z,28
2016-11-16T08:14:19.117Z,32
2016-11-16T08:15:19.174Z,36
2016-11-16T08:16:19.235Z,36
2016-11-16T08:17:19.358Z,40
2016-11-16T08:18:19.330Z,44
2016-11-16T08:19:19.392Z,48
2016-11-16T08:20:19.448Z,56
2016-11-16T08:21:19.468Z,60
2016-11-16T08:22:19.708Z,64
2016-11-16T08:23:19.554Z,68
2016-11-16T08:24:19.594Z,68
2016-11-16T08:25:20.180Z,72
2016-11-16T08:26:19.717Z,80
2016-11-16T08:27:19.954Z,92
2016-11-16T08:28:19.830Z,100
2016-11-16T08:29:19.924Z,104
2016-11-16T08:30:19.990Z,108
2016-11-16T08:31:19.992Z,112
2016-11-16T08:32:20.125Z,120
2016-11-16T08:33:20.093Z,136
2016-11-16T08:34:20.657Z,148
2016-11-16T08:35:20.166Z,164
2016-11-16T08:36:20.274Z,216
2016-11-16T08:37:20.278Z,292
2016-11-16T08:38:20.352Z,344
2016-11-16T08:39:20.409Z,404
2016-11-16T08:40:20.966Z,472
2016-11-16T08:41:20.483Z,584
2016-11-16T08:42:21.064Z,784
2016-11-16T08:43:21.081Z,1080
2016-11-16T08:44:20.635Z,1520
2016-11-16T08:45:20.674Z,2144
2016-11-16T08:46:20.782Z,2720
2016-11-16T08:47:20.768Z,3268
2016-11-16T08:48:21.064Z,3556
2016-11-16T08:49:20.918Z,3500
2016-11-16T08:50:20.935Z,3216
2016-11-16T08:51:21.006Z,3588
2016-11-16T08:52:21.047Z,4396
2016-11-16T08:53:21.192Z,5156
2016-11-16T08:54:21.191Z,5816
2016-11-16T08:55:21.209Z,6284
2016-11-16T08:56:21.231Z,6580
2016-11-16T08:57:21.258Z,6616
2016-11-16T08:58:21.454Z,4824
2016-11-16T08:59:21.365Z,3652
2016-11-16T09:00:21.829Z,3300
2016-11-16T09:01:21.458Z,3004
2016-11-16T09:02:21.578Z,2896
2016-11-16T09:03:21.846Z,2832
2016-11-16T09:04:21.642Z,2860
2016-11-16T09:05:22.293Z,2968
2016-11-16T09:06:21.742Z,3056
2016-11-16T09:07:21.819Z,3324
2016-11-16T09:08:22.025Z,3792
2016-11-16T09:09:21.898Z,4272
2016-11-16T09:10:21.913Z,4624
2016-11-16T09:11:21.992Z,4844
2016-11-16T09:12:22.555Z,5416
2016-11-16T09:13:22.168Z,6188
2016-11-16T09:14:22.174Z,6604
2016-11-16T09:15:22.263Z,7432
2016-11-16T09:16:22.295Z,7840
2016-11-16T09:17:22.872Z,9528
2016-11-16T09:18:22.596Z,12276
2016-11-16T09:19:22.410Z,12936
2016-11-16T09:20:22.455Z,14316
2016-11-16T09:21:22.502Z,17696
2016-11-16T09:22:22.581Z,16640
2016-11-16T09:23:23.942Z,21920
2016-11-16T09:24:23.735Z,50048
2016-11-16T09:25:22.760Z,60288
2016-11-16T09:26:22.760Z,37920
2016-11-16T09:27:22.785Z,34368
2016-11-16T09:28:23.419Z,30368
2016-11-16T09:29:22.905Z,30656
2016-11-16T09:30:22.932Z,25408
2016-11-16T09:31:23.550Z,24160
2016-11-16T09:32:23.053Z,16544
2016-11-16T09:33:23.618Z,14696
2016-11-16T09:34:23.379Z,16640
2016-11-16T09:35:23.266Z,18400
2016-11-16T09:36:23.824Z,15624
2016-11-16T09:37:23.344Z,16060
2016-11-16T09:38:23.400Z,14660
2016-11-16T09:39:24.150Z,13664
2016-11-16T09:40:24.022Z,12784
2016-11-16T09:41:23.537Z,11640
2016-11-16T09:42:23.537Z,9988
2016-11-16T09:43:24.158Z,8712
2016-11-16T09:44:23.798Z,7924
2016-11-16T09:45:24.295Z,7444
2016-11-16T09:46:24.320Z,7648
2016-11-16T09:47:24.952Z,8380
2016-11-16T09:48:24.459Z,8868
2016-11-16T09:49:24.126Z,9340
2016-11-16T09:50:24.024Z,10036
2016-11-16T09:51:24.030Z,12304
2016-11-16T09:52:24.137Z,13076
2016-11-16T09:53:24.456Z,12972
2016-11-16T09:54:24.843Z,14220
2016-11-16T09:55:24.822Z,12008
2016-11-16T09:56:24.816Z,11768
2016-11-16T09:57:24.969Z,15936
2016-11-16T09:58:24.372Z,11092
2016-11-16T09:59:25.223Z,13092
2016-11-16T10:00:24.550Z,14272
2016-11-16T10:01:25.120Z,8852
2016-11-16T10:02:25.690Z,8076
2016-11-16T10:03:25.783Z,8216
2016-11-16T10:04:25.213Z,8480
2016-11-16T10:05:24.837Z,8516
2016-11-16T10:06:24.892Z,8272
2016-11-16T10:07:25.945Z,8540
2016-11-16T10:08:24.973Z,8864
2016-11-16T10:09:25.057Z,9284
2016-11-16T10:10:25.648Z,9748
2016-11-16T10:11:25.114Z,10540
2016-11-16T10:12:25.151Z,10552
2016-11-16T10:13:25.399Z,10976
2016-11-16T10:14:25.285Z,11508
2016-11-16T10:15:26.015Z,11668
2016-11-16T10:16:25.323Z,11856
2016-11-16T10:17:25.973Z,12616
2016-11-16T10:18:25.448Z,11772
2016-11-16T10:19:25.976Z,12408
2016-11-16T10:20:26.147Z,12672
2016-11-16T10:21:26.677Z,13732
2016-11-16T10:22:26.175Z,11700
2016-11-16T10:23:26.193Z,11696
2016-11-16T10:24:26.336Z,12676
2016-11-16T10:25:26.057Z,12248
2016-11-16T10:26:26.436Z,13788
2016-11-16T10:27:25.930Z,12832
2016-11-16T10:28:26.536Z,11904
2016-11-16T10:29:27.076Z,14076
2016-11-16T10:30:26.801Z,13852
2016-11-16T10:31:26.349Z,13716
2016-11-16T10:32:26.330Z,15764
2016-11-16T10:33:26.258Z,14936
2016-11-16T10:34:26.290Z,14456
2016-11-16T10:35:26.830Z,13648
2016-11-16T10:36:26.409Z,13264
2016-11-16T10:37:27.013Z,12556
2016-11-16T10:38:26.501Z,11944
2016-11-16T10:39:26.531Z,11380
2016-11-16T10:40:27.140Z,10612
2016-11-16T10:41:27.166Z,9756
2016-11-16T10:42:27.226Z,9072
2016-11-16T10:43:26.740Z,8664
2016-11-16T10:44:27.389Z,8512
2016-11-16T10:45:26.880Z,8300
2016-11-16T10:46:27.634Z,8220
2016-11-16T10:47:26.997Z,8144
2016-11-16T10:48:27.555Z,7928
2016-11-16T10:49:27.259Z,7808
2016-11-16T10:50:27.148Z,7680
2016-11-16T10:51:27.971Z,7664
2016-11-16T10:52:27.760Z,7560
2016-11-16T10:53:27.290Z,7488
2016-11-16T10:54:27.883Z,7500
2016-11-16T10:55:27.359Z,7536
2016-11-16T10:56:27.661Z,7616
2016-11-16T10:57:27.453Z,7672
2016-11-16T10:58:27.744Z,7700
2016-11-16T10:59:27.588Z,8008
2016-11-16T11:00:28.225Z,8208
2016-11-16T11:01:28.473Z,8156
2016-11-16T11:02:27.769Z,8052
2016-11-16T11:03:27.829Z,7876
2016-11-16T11:04:27.850Z,7776
2016-11-16T11:05:28.625Z,7808
2016-11-16T11:06:28.730Z,7872
2016-11-16T11:07:28.517Z,7584
2016-11-16T11:08:28.047Z,7628
2016-11-16T11:09:28.669Z,7324
2016-11-16T11:10:28.700Z,6928
2016-11-16T11:11:28.247Z,6948
2016-11-16T11:12:28.449Z,7056
2016-11-16T11:13:28.822Z,7196
2016-11-16T11:14:28.363Z,7168
2016-11-16T11:15:28.415Z,7180
2016-11-16T11:16:28.509Z,7284
2016-11-16T11:17:28.710Z,7324
2016-11-16T11:18:29.185Z,7316
2016-11-16T11:19:29.281Z,7232
2016-11-16T11:20:28.763Z,7144
2016-11-16T11:21:29.360Z,7084
2016-11-16T11:22:29.017Z,7140
2016-11-16T11:23:28.908Z,7124
2016-11-16T11:24:29.498Z,7200
2016-11-16T11:25:28.996Z,7300
2016-11-16T11:26:29.017Z,7232
2016-11-16T11:27:29.260Z,7140
2016-11-16T11:28:29.341Z,7104
2016-11-16T11:29:29.684Z,7060
2016-11-16T11:30:29.250Z,7092
2016-11-16T11:31:29.274Z,6996
2016-11-16T11:32:30.044Z,6824
2016-11-16T11:33:29.364Z,6752
2016-11-16T11:34:29.503Z,6680
2016-11-16T11:35:29.444Z,6456
2016-11-16T11:36:29.532Z,6280
2016-11-16T11:37:29.774Z,6064
2016-11-16T11:38:30.182Z,5800
2016-11-16T11:39:30.198Z,5700
2016-11-16T11:40:30.319Z,5548
2016-11-16T11:41:29.794Z,5460
2016-11-16T11:42:30.603Z,5376
2016-11-16T11:43:30.441Z,5444
2016-11-16T11:44:31.074Z,5400
2016-11-16T11:45:31.296Z,5324
2016-11-16T11:46:30.633Z,5372
2016-11-16T11:47:30.161Z,5380
2016-11-16T11:48:30.228Z,5332
2016-11-16T11:49:30.716Z,5180
2016-11-16T11:50:30.271Z,5216
2016-11-16T11:51:30.302Z,5152
2016-11-16T11:52:30.350Z,5080
2016-11-16T11:53:31.368Z,5088
2016-11-16T11:54:30.456Z,5048
2016-11-16T11:55:30.791Z,5020
2016-11-16T11:56:30.621Z,4948
2016-11-16T11:57:31.107Z,5000
2016-11-16T11:58:30.948Z,5060
2016-11-16T11:59:30.771Z,5092
2016-11-16T12:00:30.853Z,5072
2016-11-16T12:01:31.362Z,5068
2016-11-16T12:02:31.441Z,4968
2016-11-16T12:03:31.180Z,4988
2016-11-16T12:04:31.509Z,4988
2016-11-16T12:05:31.631Z,4964
2016-11-16T12:06:31.835Z,4952
2016-11-16T12:07:31.194Z,4900
2016-11-16T12:08:31.400Z,4952
2016-11-16T12:09:31.278Z,4932
2016-11-16T12:10:31.336Z,4912
2016-11-16T12:11:31.384Z,4968
2016-11-16T12:12:32.011Z,4992
2016-11-16T12:13:31.672Z,4964
2016-11-16T12:14:32.087Z,4940
2016-11-16T12:15:31.607Z,4936
2016-11-16T12:16:32.167Z,4904
2016-11-16T12:17:31.699Z,4924
2016-11-16T12:18:32.010Z,4936
2016-11-16T12:19:31.820Z,4892
2016-11-16T12:20:31.866Z,4928
2016-11-16T12:21:31.953Z,4916
2016-11-16T12:22:31.958Z,4920
2016-11-16T12:23:32.047Z,4888
2016-11-16T12:24:32.089Z,4864
2016-11-16T12:25:32.109Z,4868
2016-11-16T12:26:32.181Z,4840
2016-11-16T12:27:32.243Z,4828
2016-11-16T12:28:32.278Z,4852
2016-11-16T12:29:32.337Z,4788
2016-11-16T12:30:32.340Z,4816
2016-11-16T12:31:32.415Z,4820
2016-11-16T12:32:33.010Z,4824
2016-11-16T12:33:33.056Z,4820
2016-11-16T12:34:32.827Z,4836
2016-11-16T12:35:32.621Z,4832
2016-11-16T12:36:33.231Z,4808
2016-11-16T12:37:32.698Z,4820
2016-11-16T12:38:33.288Z,4824
2016-11-16T12:39:33.071Z,4808
2016-11-16T12:40:32.886Z,4808
2016-11-16T12:41:32.959Z,4816
2016-11-16T12:42:33.569Z,4808
2016-11-16T12:43:33.045Z,4792
2016-11-16T12:44:34.780Z,4820
2016-11-16T12:45:33.687Z,4812
2016-11-16T12:46:33.766Z,4808
2016-11-16T12:47:33.295Z,4812
2016-11-16T12:48:33.350Z,4804
2016-11-16T12:49:34.125Z,4816
2016-11-16T12:50:33.936Z,4816
2016-11-16T12:51:34.087Z,4808
2016-11-16T12:52:33.635Z,4832
2016-11-16T12:53:33.640Z,4832
2016-11-16T12:54:33.863Z,4824
2016-11-16T12:55:33.739Z,4860
2016-11-16T12:56:34.299Z,4836
2016-11-16T12:57:33.839Z,4832
2016-11-16T12:58:34.373Z,4840
2016-11-16T12:59:34.664Z,4836
2016-11-16T13:00:33.918Z,4856
2016-11-16T13:01:34.024Z,4784
2016-11-16T13:02:34.061Z,4864
2016-11-16T13:03:34.124Z,4904
2016-11-16T13:04:34.155Z,4924
2016-11-16T13:05:34.260Z,4896
2016-11-16T13:06:34.303Z,4880
2016-11-16T13:07:34.344Z,4880
2016-11-16T13:08:34.935Z,4928
2016-11-16T13:09:34.450Z,4904
2016-11-16T13:10:35.244Z,4840
2016-11-16T13:11:35.097Z,4840
2016-11-16T13:12:34.604Z,4752
2016-11-16T13:13:35.231Z,4848
2016-11-16T13:14:34.702Z,4936
2016-11-16T13:15:35.008Z,4928
2016-11-16T13:16:35.400Z,4916
2016-11-16T13:17:34.885Z,4844
2016-11-16T13:18:34.961Z,4856
2016-11-16T13:19:34.974Z,4868
2016-11-16T13:20:35.227Z,4884
2016-11-16T13:21:35.706Z,4912
2016-11-16T13:22:35.168Z,4916
2016-11-16T13:23:35.776Z,4932
2016-11-16T13:24:35.238Z,4984
2016-11-16T13:25:35.536Z,5112
2016-11-16T13:26:36.102Z,5116
2016-11-16T13:27:35.973Z,5100
2016-11-16T13:28:35.512Z,5188
2016-11-16T13:29:35.580Z,5248
2016-11-16T13:30:36.400Z,5368
2016-11-16T13:31:35.707Z,5332
2016-11-16T13:32:36.740Z,5400
2016-11-16T13:33:35.751Z,5376
2016-11-16T13:34:35.822Z,5392
2016-11-16T13:35:36.896Z,5504
2016-11-16T13:36:35.988Z,5616
2016-11-16T13:37:36.496Z,5680
2016-11-16T13:38:36.754Z,5820
2016-11-16T13:39:36.087Z,4064
2016-11-16T13:40:37.125Z,4208
2016-11-16T13:41:36.245Z,4272
2016-11-16T13:42:36.283Z,5440
2016-11-16T13:43:36.816Z,5940
2016-11-16T13:44:36.414Z,4980
2016-11-16T13:45:36.941Z,5044
2016-11-16T13:46:36.445Z,4808
2016-11-16T13:47:37.592Z,4776
2016-11-16T13:48:37.646Z,4984
2016-11-16T13:49:37.189Z,4872
2016-11-16T13:50:37.273Z,4804
2016-11-16T13:51:37.466Z,6448
2016-11-16T13:52:36.835Z,4660
2016-11-16T13:53:36.851Z,6320
2016-11-16T13:54:36.950Z,6332
2016-11-16T13:55:37.525Z,6648
2016-11-16T13:56:37.215Z,6812
2016-11-16T13:57:37.067Z,6840
2016-11-16T13:58:37.111Z,7004
2016-11-16T13:59:37.240Z,6904
2016-11-16T14:00:37.806Z,6920
2016-11-16T14:01:37.515Z,6844
2016-11-16T14:02:37.896Z,6760
2016-11-16T14:03:37.408Z,6576
2016-11-16T14:04:37.467Z,6436
2016-11-16T14:05:37.563Z,5372
2016-11-16T14:06:37.769Z,6304
2016-11-16T14:07:38.213Z,5096
2016-11-16T14:08:38.244Z,5336
2016-11-16T14:09:37.781Z,6052